sensor_id;sensor_type;location;lat;lon;timestamp;temperature;humidity
74822;DHT22;63353;48.702;8.884;2023-06-14T00:01:51;10.90;99.90
74822;DHT22;63353;48.702;8.884;2023-06-14T00:04:29;10.90;99.90
74822;DHT22;63353;48.702;8.884;2023-06-14T00:06:56;11.00;99.90
74822;DHT22;63353;48.702;8.884;2023-06-14T00:09:22;11.20;99.90
74822;DHT22;63353;48.702;8.884;2023-06-14T00:11:51;11.20;99.90
74822;DHT22;63353;48.702;8.884;2023-06-14T00:14:20;11.10;99.90
74822;DHT22;63353;48.702;8.884;2023-06-14T00:16:45;10.90;99.90
74822;DHT22;63353;48.702;8.884;2023-06-14T00:19:20;10.80;99.90
74822;DHT22;63353;48.702;8.884;2023-06-14T00:21:49;10.80;99.90
74822;DHT22;63353;48.702;8.884;2023-06-14T00:24:15;10.80;99.90
74822;DHT22;63353;48.702;8.884;2023-06-14T00:26:41;10.60;99.90
74822;DHT22;63353;48.702;8.884;2023-06-14T00:29:06;10.50;99.90
74822;DHT22;63353;48.702;8.884;2023-06-14T00:31:32;10.30;99.90
74822;DHT22;63353;48.702;8.884;2023-06-14T00:34:01;10.30;99.90
74822;DHT22;63353;48.702;8.884;2023-06-14T00:36:26;10.20;99.90
74822;DHT22;63353;48.702;8.884;2023-06-14T00:38:55;10.10;99.90
74822;DHT22;63353;48.702;8.884;2023-06-14T00:41:21;10.00;99.90
74822;DHT22;63353;48.702;8.884;2023-06-14T00:43:46;9.90;99.90
74822;DHT22;63353;48.702;8.884;2023-06-14T00:46:13;10.00;99.90
74822;DHT22;63353;48.702;8.884;2023-06-14T00:48:39;10.00;99.90
74822;DHT22;63353;48.702;8.884;2023-06-14T00:51:06;10.00;99.90
74822;DHT22;63353;48.702;8.884;2023-06-14T00:53:32;9.90;99.90
74822;DHT22;63353;48.702;8.884;2023-06-14T00:56:03;9.80;99.90
74822;DHT22;63353;48.702;8.884;2023-06-14T00:58:29;9.80;99.90
74822;DHT22;63353;48.702;8.884;2023-06-14T01:01:02;9.70;99.90
74822;DHT22;63353;48.702;8.884;2023-06-14T01:03:28;9.60;99.90
74822;DHT22;63353;48.702;8.884;2023-06-14T01:06:02;9.70;99.90
74822;DHT22;63353;48.702;8.884;2023-06-14T01:08:47;9.70;99.90
74822;DHT22;63353;48.702;8.884;2023-06-14T01:11:24;9.60;99.90
74822;DHT22;63353;48.702;8.884;2023-06-14T01:13:56;9.60;99.90
74822;DHT22;63353;48.702;8.884;2023-06-14T01:16:25;9.60;99.90
74822;DHT22;63353;48.702;8.884;2023-06-14T01:18:54;9.60;99.90
74822;DHT22;63353;48.702;8.884;2023-06-14T01:21:25;9.70;99.90
74822;DHT22;63353;48.702;8.884;2023-06-14T01:23:52;9.80;99.90
74822;DHT22;63353;48.702;8.884;2023-06-14T01:26:22;9.90;99.90
74822;DHT22;63353;48.702;8.884;2023-06-14T01:28:49;10.00;99.90
74822;DHT22;63353;48.702;8.884;2023-06-14T01:31:24;10.00;99.90
74822;DHT22;63353;48.702;8.884;2023-06-14T01:33:51;10.00;99.90
74822;DHT22;63353;48.702;8.884;2023-06-14T01:36:19;9.90;99.90
74822;DHT22;63353;48.702;8.884;2023-06-14T01:38:46;9.80;99.90
74822;DHT22;63353;48.702;8.884;2023-06-14T01:41:18;9.80;99.90
74822;DHT22;63353;48.702;8.884;2023-06-14T01:43:45;9.80;99.90
74822;DHT22;63353;48.702;8.884;2023-06-14T01:46:13;9.90;99.90
74822;DHT22;63353;48.702;8.884;2023-06-14T01:48:40;9.80;99.90
74822;DHT22;63353;48.702;8.884;2023-06-14T01:51:06;9.70;99.90
74822;DHT22;63353;48.702;8.884;2023-06-14T01:53:31;9.60;99.90
74822;DHT22;63353;48.702;8.884;2023-06-14T01:56:00;9.60;99.90
74822;DHT22;63353;48.702;8.884;2023-06-14T01:58:26;9.60;99.90
74822;DHT22;63353;48.702;8.884;2023-06-14T02:00:52;9.60;99.90
74822;DHT22;63353;48.702;8.884;2023-06-14T02:03:21;9.50;99.90
74822;DHT22;63353;48.702;8.884;2023-06-14T02:05:46;9.50;99.90
74822;DHT22;63353;48.702;8.884;2023-06-14T02:08:15;9.50;99.90
74822;DHT22;63353;48.702;8.884;2023-06-14T02:10:47;9.40;99.90
74822;DHT22;63353;48.702;8.884;2023-06-14T02:13:15;9.40;99.90
74822;DHT22;63353;48.702;8.884;2023-06-14T02:15:44;9.30;99.90
74822;DHT22;63353;48.702;8.884;2023-06-14T02:18:16;9.10;99.90
74822;DHT22;63353;48.702;8.884;2023-06-14T02:20:48;9.10;99.90
74822;DHT22;63353;48.702;8.884;2023-06-14T02:23:19;9.00;99.90
74822;DHT22;63353;48.702;8.884;2023-06-14T02:25:48;9.00;99.90
74822;DHT22;63353;48.702;8.884;2023-06-14T02:28:20;9.10;99.90
74822;DHT22;63353;48.702;8.884;2023-06-14T02:30:45;9.10;99.90
74822;DHT22;63353;48.702;8.884;2023-06-14T02:33:11;9.10;99.90
74822;DHT22;63353;48.702;8.884;2023-06-14T02:35:38;9.20;99.90
74822;DHT22;63353;48.702;8.884;2023-06-14T02:38:04;9.20;99.90
74822;DHT22;63353;48.702;8.884;2023-06-14T02:40:29;9.40;99.90
74822;DHT22;63353;48.702;8.884;2023-06-14T02:42:58;9.40;99.90
74822;DHT22;63353;48.702;8.884;2023-06-14T02:45:24;9.30;99.90
74822;DHT22;63353;48.702;8.884;2023-06-14T02:48:02;9.30;99.90
74822;DHT22;63353;48.702;8.884;2023-06-14T02:50:28;9.20;99.90
74822;DHT22;63353;48.702;8.884;2023-06-14T02:52:58;9.30;99.90
74822;DHT22;63353;48.702;8.884;2023-06-14T02:55:29;9.20;99.90
74822;DHT22;63353;48.702;8.884;2023-06-14T02:57:55;9.10;99.90
74822;DHT22;63353;48.702;8.884;2023-06-14T03:00:26;9.00;99.90
74822;DHT22;63353;48.702;8.884;2023-06-14T03:02:59;8.90;99.90
74822;DHT22;63353;48.702;8.884;2023-06-14T03:05:33;8.90;99.90
74822;DHT22;63353;48.702;8.884;2023-06-14T03:08:01;8.90;99.90
74822;DHT22;63353;48.702;8.884;2023-06-14T03:10:31;8.90;99.90
74822;DHT22;63353;48.702;8.884;2023-06-14T03:13:02;8.90;99.90
74822;DHT22;63353;48.702;8.884;2023-06-14T03:15:28;9.00;99.90
74822;DHT22;63353;48.702;8.884;2023-06-14T03:17:54;8.90;99.90
74822;DHT22;63353;48.702;8.884;2023-06-14T03:20:20;8.90;99.90
74822;DHT22;63353;48.702;8.884;2023-06-14T03:22:45;8.90;99.90
74822;DHT22;63353;48.702;8.884;2023-06-14T03:25:14;8.90;99.90
74822;DHT22;63353;48.702;8.884;2023-06-14T03:27:49;8.80;99.90
74822;DHT22;63353;48.702;8.884;2023-06-14T03:30:24;8.80;99.90
74822;DHT22;63353;48.702;8.884;2023-06-14T03:32:52;8.80;99.90
74822;DHT22;63353;48.702;8.884;2023-06-14T03:35:21;8.70;99.90
74822;DHT22;63353;48.702;8.884;2023-06-14T03:37:47;8.70;99.90
74822;DHT22;63353;48.702;8.884;2023-06-14T03:40:17;8.60;99.90
74822;DHT22;63353;48.702;8.884;2023-06-14T03:42:49;8.50;99.90
74822;DHT22;63353;48.702;8.884;2023-06-14T03:45:18;8.50;99.90
74822;DHT22;63353;48.702;8.884;2023-06-14T03:47:47;8.50;99.90
74822;DHT22;63353;48.702;8.884;2023-06-14T03:50:13;8.50;99.90
74822;DHT22;63353;48.702;8.884;2023-06-14T03:52:38;8.50;99.90
74822;DHT22;63353;48.702;8.884;2023-06-14T03:55:07;8.50;99.90
74822;DHT22;63353;48.702;8.884;2023-06-14T03:57:33;8.50;99.90
74822;DHT22;63353;48.702;8.884;2023-06-14T03:59:59;8.50;99.90
74822;DHT22;63353;48.702;8.884;2023-06-14T04:02:24;8.60;99.90
74822;DHT22;63353;48.702;8.884;2023-06-14T04:05:14;8.60;99.90
74822;DHT22;63353;48.702;8.884;2023-06-14T04:07:42;8.80;99.90
74822;DHT22;63353;48.702;8.884;2023-06-14T04:10:10;8.90;99.90
74822;DHT22;63353;48.702;8.884;2023-06-14T04:12:36;9.10;99.90
74822;DHT22;63353;48.702;8.884;2023-06-14T04:15:05;9.20;99.90
74822;DHT22;63353;48.702;8.884;2023-06-14T04:17:32;9.30;99.90
74822;DHT22;63353;48.702;8.884;2023-06-14T04:20:01;9.40;99.90
74822;DHT22;63353;48.702;8.884;2023-06-14T04:22:29;9.50;99.90
74822;DHT22;63353;48.702;8.884;2023-06-14T04:24:56;9.70;99.90
74822;DHT22;63353;48.702;8.884;2023-06-14T04:27:26;9.70;99.90
74822;DHT22;63353;48.702;8.884;2023-06-14T04:29:53;9.70;99.90
74822;DHT22;63353;48.702;8.884;2023-06-14T04:32:29;9.70;99.90
74822;DHT22;63353;48.702;8.884;2023-06-14T04:34:59;9.80;99.90
74822;DHT22;63353;48.702;8.884;2023-06-14T04:37:27;9.90;99.90
74822;DHT22;63353;48.702;8.884;2023-06-14T04:39:55;9.90;99.90
74822;DHT22;63353;48.702;8.884;2023-06-14T04:42:22;10.00;99.90
74822;DHT22;63353;48.702;8.884;2023-06-14T04:44:50;10.10;99.90
74822;DHT22;63353;48.702;8.884;2023-06-14T04:47:16;10.20;99.90
74822;DHT22;63353;48.702;8.884;2023-06-14T04:49:42;10.30;99.90
74822;DHT22;63353;48.702;8.884;2023-06-14T04:52:11;10.50;99.90
74822;DHT22;63353;48.702;8.884;2023-06-14T04:54:38;10.70;99.90
74822;DHT22;63353;48.702;8.884;2023-06-14T04:57:11;10.90;99.90
74822;DHT22;63353;48.702;8.884;2023-06-14T04:59:45;11.10;99.90
74822;DHT22;63353;48.702;8.884;2023-06-14T05:02:11;11.30;99.90
74822;DHT22;63353;48.702;8.884;2023-06-14T05:04:37;11.40;99.90
74822;DHT22;63353;48.702;8.884;2023-06-14T05:07:08;11.60;99.90
74822;DHT22;63353;48.702;8.884;2023-06-14T05:09:34;11.60;99.90
74822;DHT22;63353;48.702;8.884;2023-06-14T05:12:01;11.80;99.90
74822;DHT22;63353;48.702;8.884;2023-06-14T05:14:29;11.90;99.90
74822;DHT22;63353;48.702;8.884;2023-06-14T05:16:55;12.10;99.90
74822;DHT22;63353;48.702;8.884;2023-06-14T05:19:30;12.30;99.90
74822;DHT22;63353;48.702;8.884;2023-06-14T05:22:02;12.50;99.90
74822;DHT22;63353;48.702;8.884;2023-06-14T05:24:28;12.60;99.90
74822;DHT22;63353;48.702;8.884;2023-06-14T05:26:56;12.70;99.90
74822;DHT22;63353;48.702;8.884;2023-06-14T05:29:24;12.90;99.90
74822;DHT22;63353;48.702;8.884;2023-06-14T05:31:54;13.10;99.90
74822;DHT22;63353;48.702;8.884;2023-06-14T05:34:22;13.30;99.90
74822;DHT22;63353;48.702;8.884;2023-06-14T05:36:51;13.40;99.90
74822;DHT22;63353;48.702;8.884;2023-06-14T05:39:16;13.60;99.90
74822;DHT22;63353;48.702;8.884;2023-06-14T05:41:42;13.70;99.90
74822;DHT22;63353;48.702;8.884;2023-06-14T05:44:09;13.90;99.90
74822;DHT22;63353;48.702;8.884;2023-06-14T05:46:34;14.00;99.90
74822;DHT22;63353;48.702;8.884;2023-06-14T05:49:00;14.20;99.90
74822;DHT22;63353;48.702;8.884;2023-06-14T05:51:29;14.30;99.90
74822;DHT22;63353;48.702;8.884;2023-06-14T05:53:55;14.40;99.90
74822;DHT22;63353;48.702;8.884;2023-06-14T05:56:24;14.40;99.90
74822;DHT22;63353;48.702;8.884;2023-06-14T05:58:54;14.50;99.90
74822;DHT22;63353;48.702;8.884;2023-06-14T06:01:23;14.60;99.90
74822;DHT22;63353;48.702;8.884;2023-06-14T06:03:48;14.70;99.90
74822;DHT22;63353;48.702;8.884;2023-06-14T06:06:17;14.90;99.90
74822;DHT22;63353;48.702;8.884;2023-06-14T06:08:45;15.00;99.90
74822;DHT22;63353;48.702;8.884;2023-06-14T06:11:18;15.00;99.90
74822;DHT22;63353;48.702;8.884;2023-06-14T06:13:58;15.20;99.90
74822;DHT22;63353;48.702;8.884;2023-06-14T06:16:24;15.30;99.90
74822;DHT22;63353;48.702;8.884;2023-06-14T06:18:53;15.50;99.90
74822;DHT22;63353;48.702;8.884;2023-06-14T06:21:25;15.60;99.90
74822;DHT22;63353;48.702;8.884;2023-06-14T06:23:54;15.70;99.90
74822;DHT22;63353;48.702;8.884;2023-06-14T06:26:22;15.90;99.90
74822;DHT22;63353;48.702;8.884;2023-06-14T06:28:56;15.90;99.90
74822;DHT22;63353;48.702;8.884;2023-06-14T06:31:22;16.10;99.90
74822;DHT22;63353;48.702;8.884;2023-06-14T06:33:48;16.30;99.90
74822;DHT22;63353;48.702;8.884;2023-06-14T06:36:16;16.50;99.90
74822;DHT22;63353;48.702;8.884;2023-06-14T06:38:45;16.70;99.90
74822;DHT22;63353;48.702;8.884;2023-06-14T06:41:11;16.90;99.90
74822;DHT22;63353;48.702;8.884;2023-06-14T06:43:42;17.10;99.90
74822;DHT22;63353;48.702;8.884;2023-06-14T06:46:14;17.20;99.90
74822;DHT22;63353;48.702;8.884;2023-06-14T06:48:40;17.30;99.90
74822;DHT22;63353;48.702;8.884;2023-06-14T06:51:08;17.40;99.90
74822;DHT22;63353;48.702;8.884;2023-06-14T06:53:37;17.50;99.90
74822;DHT22;63353;48.702;8.884;2023-06-14T06:56:06;17.70;99.90
74822;DHT22;63353;48.702;8.884;2023-06-14T06:58:41;17.80;99.90
74822;DHT22;63353;48.702;8.884;2023-06-14T07:01:12;18.00;99.90
74822;DHT22;63353;48.702;8.884;2023-06-14T07:03:38;18.20;99.90
74822;DHT22;63353;48.702;8.884;2023-06-14T07:06:07;18.20;99.90
74822;DHT22;63353;48.702;8.884;2023-06-14T07:08:36;18.50;99.90
74822;DHT22;63353;48.702;8.884;2023-06-14T07:11:04;18.70;99.90
74822;DHT22;63353;48.702;8.884;2023-06-14T07:13:30;18.90;99.90
74822;DHT22;63353;48.702;8.884;2023-06-14T07:15:58;19.20;99.90
74822;DHT22;63353;48.702;8.884;2023-06-14T07:18:27;19.40;99.90
74822;DHT22;63353;48.702;8.884;2023-06-14T07:21:52;19.70;99.90
74822;DHT22;63353;48.702;8.884;2023-06-14T07:24:11;19.90;99.90
74822;DHT22;63353;48.702;8.884;2023-06-14T07:26:40;20.00;99.90
74822;DHT22;63353;48.702;8.884;2023-06-14T07:29:06;20.00;99.90
74822;DHT22;63353;48.702;8.884;2023-06-14T07:31:32;20.20;99.90
74822;DHT22;63353;48.702;8.884;2023-06-14T07:33:57;20.40;99.90
74822;DHT22;63353;48.702;8.884;2023-06-14T07:36:23;20.70;99.90
74822;DHT22;63353;48.702;8.884;2023-06-14T07:38:49;20.80;99.90
74822;DHT22;63353;48.702;8.884;2023-06-14T07:41:15;21.00;99.90
74822;DHT22;63353;48.702;8.884;2023-06-14T07:43:41;21.00;99.90
74822;DHT22;63353;48.702;8.884;2023-06-14T07:46:13;21.10;99.90
74822;DHT22;63353;48.702;8.884;2023-06-14T07:48:41;21.20;99.90
74822;DHT22;63353;48.702;8.884;2023-06-14T07:51:10;21.30;99.90
74822;DHT22;63353;48.702;8.884;2023-06-14T07:53:39;21.70;99.90
74822;DHT22;63353;48.702;8.884;2023-06-14T07:56:04;22.00;99.90
74822;DHT22;63353;48.702;8.884;2023-06-14T07:58:30;21.70;99.90
74822;DHT22;63353;48.702;8.884;2023-06-14T08:00:56;21.30;99.90
74822;DHT22;63353;48.702;8.884;2023-06-14T08:03:24;21.70;99.90
74822;DHT22;63353;48.702;8.884;2023-06-14T08:05:53;21.90;99.90
74822;DHT22;63353;48.702;8.884;2023-06-14T08:08:25;21.90;99.90
74822;DHT22;63353;48.702;8.884;2023-06-14T08:10:56;22.20;99.90
74822;DHT22;63353;48.702;8.884;2023-06-14T08:13:22;22.10;99.90
74822;DHT22;63353;48.702;8.884;2023-06-14T08:15:51;22.10;99.90
74822;DHT22;63353;48.702;8.884;2023-06-14T08:18:28;22.30;99.90
74822;DHT22;63353;48.702;8.884;2023-06-14T08:20:55;22.20;99.90
74822;DHT22;63353;48.702;8.884;2023-06-14T08:23:23;22.50;99.90
74822;DHT22;63353;48.702;8.884;2023-06-14T08:25:48;22.40;99.90
74822;DHT22;63353;48.702;8.884;2023-06-14T08:28:20;22.60;98.60
74822;DHT22;63353;48.702;8.884;2023-06-14T08:30:52;22.60;99.90
74822;DHT22;63353;48.702;8.884;2023-06-14T08:33:17;22.90;98.10
74822;DHT22;63353;48.702;8.884;2023-06-14T08:35:46;22.80;98.10
74822;DHT22;63353;48.702;8.884;2023-06-14T08:38:12;23.10;98.70
74822;DHT22;63353;48.702;8.884;2023-06-14T08:40:38;23.40;99.10
74822;DHT22;63353;48.702;8.884;2023-06-14T08:43:07;23.60;98.90
74822;DHT22;63353;48.702;8.884;2023-06-14T08:45:32;23.60;96.90
74822;DHT22;63353;48.702;8.884;2023-06-14T08:47:59;23.90;98.00
74822;DHT22;63353;48.702;8.884;2023-06-14T08:50:28;24.20;96.30
74822;DHT22;63353;48.702;8.884;2023-06-14T08:53:03;24.20;95.40
74822;DHT22;63353;48.702;8.884;2023-06-14T08:55:29;23.70;94.00
74822;DHT22;63353;48.702;8.884;2023-06-14T08:58:01;23.70;94.90
74822;DHT22;63353;48.702;8.884;2023-06-14T09:00:28;23.90;96.70
74822;DHT22;63353;48.702;8.884;2023-06-14T09:02:57;24.20;93.50
74822;DHT22;63353;48.702;8.884;2023-06-14T09:05:32;24.30;95.10
74822;DHT22;63353;48.702;8.884;2023-06-14T09:08:02;24.50;93.30
74822;DHT22;63353;48.702;8.884;2023-06-14T09:10:31;24.60;93.10
74822;DHT22;63353;48.702;8.884;2023-06-14T09:13:00;24.80;92.40
74822;DHT22;63353;48.702;8.884;2023-06-14T09:15:26;24.80;94.40
74822;DHT22;63353;48.702;8.884;2023-06-14T09:18:07;24.70;93.10
74822;DHT22;63353;48.702;8.884;2023-06-14T09:20:33;24.80;93.40
74822;DHT22;63353;48.702;8.884;2023-06-14T09:23:02;25.20;91.60
74822;DHT22;63353;48.702;8.884;2023-06-14T09:25:30;25.30;92.20
74822;DHT22;63353;48.702;8.884;2023-06-14T09:28:07;25.70;91.00
74822;DHT22;63353;48.702;8.884;2023-06-14T09:30:33;25.90;91.10
74822;DHT22;63353;48.702;8.884;2023-06-14T09:33:02;26.00;90.70
74822;DHT22;63353;48.702;8.884;2023-06-14T09:35:28;26.00;88.90
74822;DHT22;63353;48.702;8.884;2023-06-14T09:37:59;25.90;88.00
74822;DHT22;63353;48.702;8.884;2023-06-14T09:40:25;25.90;87.70
74822;DHT22;63353;48.702;8.884;2023-06-14T09:42:54;26.30;89.30
74822;DHT22;63353;48.702;8.884;2023-06-14T09:45:23;26.40;88.60
74822;DHT22;63353;48.702;8.884;2023-06-14T09:47:52;26.10;87.20
74822;DHT22;63353;48.702;8.884;2023-06-14T09:50:21;26.00;83.50
74822;DHT22;63353;48.702;8.884;2023-06-14T09:52:47;26.10;82.00
74822;DHT22;63353;48.702;8.884;2023-06-14T09:55:17;26.10;85.30
74822;DHT22;63353;48.702;8.884;2023-06-14T09:57:45;26.50;85.50
74822;DHT22;63353;48.702;8.884;2023-06-14T10:00:18;26.70;79.60
74822;DHT22;63353;48.702;8.884;2023-06-14T10:02:54;27.20;83.80
74822;DHT22;63353;48.702;8.884;2023-06-14T10:05:27;27.20;74.90
74822;DHT22;63353;48.702;8.884;2023-06-14T10:07:59;26.90;75.80
74822;DHT22;63353;48.702;8.884;2023-06-14T10:10:31;26.90;78.10
74822;DHT22;63353;48.702;8.884;2023-06-14T10:13:03;27.10;75.80
74822;DHT22;63353;48.702;8.884;2023-06-14T10:18:35;26.90;72.30
74822;DHT22;63353;48.702;8.884;2023-06-14T10:21:05;26.90;73.80
74822;DHT22;63353;48.702;8.884;2023-06-14T10:23:41;27.00;69.80
74822;DHT22;63353;48.702;8.884;2023-06-14T10:26:08;26.40;71.60
74822;DHT22;63353;48.702;8.884;2023-06-14T10:28:37;26.60;71.80
74822;DHT22;63353;48.702;8.884;2023-06-14T10:31:08;27.00;72.50
74822;DHT22;63353;48.702;8.884;2023-06-14T10:33:48;27.10;67.50
74822;DHT22;63353;48.702;8.884;2023-06-14T10:39:18;27.20;62.00
74822;DHT22;63353;48.702;8.884;2023-06-14T10:42:01;27.90;68.10
74822;DHT22;63353;48.702;8.884;2023-06-14T10:47:23;26.70;64.80
74822;DHT22;63353;48.702;8.884;2023-06-14T10:50:04;27.50;65.90
74822;DHT22;63353;48.702;8.884;2023-06-14T10:52:37;28.30;70.60
74822;DHT22;63353;48.702;8.884;2023-06-14T10:55:11;28.80;66.20
74822;DHT22;63353;48.702;8.884;2023-06-14T10:57:39;28.60;65.00
74822;DHT22;63353;48.702;8.884;2023-06-14T11:00:06;28.60;67.00
74822;DHT22;63353;48.702;8.884;2023-06-14T11:06:13;29.10;65.10
74822;DHT22;63353;48.702;8.884;2023-06-14T11:09:09;29.60;65.90
74822;DHT22;63353;48.702;8.884;2023-06-14T11:11:42;30.10;65.60
74822;DHT22;63353;48.702;8.884;2023-06-14T11:14:09;30.20;62.50
74822;DHT22;63353;48.702;8.884;2023-06-14T11:16:37;29.80;59.50
74822;DHT22;63353;48.702;8.884;2023-06-14T11:19:03;29.00;61.00
74822;DHT22;63353;48.702;8.884;2023-06-14T11:21:29;28.00;61.80
74822;DHT22;63353;48.702;8.884;2023-06-14T11:23:57;28.30;64.40
74822;DHT22;63353;48.702;8.884;2023-06-14T11:26:32;28.20;63.50
74822;DHT22;63353;48.702;8.884;2023-06-14T11:29:00;28.40;63.00
74822;DHT22;63353;48.702;8.884;2023-06-14T11:31:29;28.40;61.50
74822;DHT22;63353;48.702;8.884;2023-06-14T11:33:59;28.60;65.00
74822;DHT22;63353;48.702;8.884;2023-06-14T11:36:34;28.70;61.70
74822;DHT22;63353;48.702;8.884;2023-06-14T11:39:05;29.20;63.70
74822;DHT22;63353;48.702;8.884;2023-06-14T11:41:44;29.50;60.20
74822;DHT22;63353;48.702;8.884;2023-06-14T11:44:11;30.00;58.10
74822;DHT22;63353;48.702;8.884;2023-06-14T11:46:37;29.80;56.70
74822;DHT22;63353;48.702;8.884;2023-06-14T11:49:04;29.10;57.90
74822;DHT22;63353;48.702;8.884;2023-06-14T11:51:33;29.00;61.70
74822;DHT22;63353;48.702;8.884;2023-06-14T11:54:03;29.60;64.20
74822;DHT22;63353;48.702;8.884;2023-06-14T11:56:30;30.20;64.30
74822;DHT22;63353;48.702;8.884;2023-06-14T11:58:57;28.50;62.10
74822;DHT22;63353;48.702;8.884;2023-06-14T12:01:23;28.90;59.60
74822;DHT22;63353;48.702;8.884;2023-06-14T12:03:53;29.10;58.60
74822;DHT22;63353;48.702;8.884;2023-06-14T12:06:27;29.60;61.60
74822;DHT22;63353;48.702;8.884;2023-06-14T12:09:08;29.40;58.40
74822;DHT22;63353;48.702;8.884;2023-06-14T12:11:38;28.90;58.10
74822;DHT22;63353;48.702;8.884;2023-06-14T12:14:05;29.30;64.60
74822;DHT22;63353;48.702;8.884;2023-06-14T12:16:33;30.10;60.60
74822;DHT22;63353;48.702;8.884;2023-06-14T12:19:17;30.50;57.00
74822;DHT22;63353;48.702;8.884;2023-06-14T12:21:47;29.90;55.70
74822;DHT22;63353;48.702;8.884;2023-06-14T12:24:23;29.40;62.70
74822;DHT22;63353;48.702;8.884;2023-06-14T12:26:59;28.90;60.80
74822;DHT22;63353;48.702;8.884;2023-06-14T12:29:33;29.50;60.30
74822;DHT22;63353;48.702;8.884;2023-06-14T12:32:05;29.60;56.00
74822;DHT22;63353;48.702;8.884;2023-06-14T12:34:33;29.30;57.00
74822;DHT22;63353;48.702;8.884;2023-06-14T12:36:59;29.20;58.40
74822;DHT22;63353;48.702;8.884;2023-06-14T12:39:28;29.60;59.10
74822;DHT22;63353;48.702;8.884;2023-06-14T12:41:57;30.00;57.20
74822;DHT22;63353;48.702;8.884;2023-06-14T12:44:23;30.60;56.10
74822;DHT22;63353;48.702;8.884;2023-06-14T12:46:51;30.50;56.80
74822;DHT22;63353;48.702;8.884;2023-06-14T12:49:23;30.00;54.70
74822;DHT22;63353;48.702;8.884;2023-06-14T12:51:54;28.20;58.30
74822;DHT22;63353;48.702;8.884;2023-06-14T12:54:20;28.00;59.60
74822;DHT22;63353;48.702;8.884;2023-06-14T12:56:47;28.00;61.30
74822;DHT22;63353;48.702;8.884;2023-06-14T12:59:19;28.10;59.20
74822;DHT22;63353;48.702;8.884;2023-06-14T13:01:45;28.90;59.60
74822;DHT22;63353;48.702;8.884;2023-06-14T13:04:13;29.00;59.50
74822;DHT22;63353;48.702;8.884;2023-06-14T13:06:42;29.20;58.60
74822;DHT22;63353;48.702;8.884;2023-06-14T13:09:07;28.50;59.00
74822;DHT22;63353;48.702;8.884;2023-06-14T13:11:39;28.80;60.30
74822;DHT22;63353;48.702;8.884;2023-06-14T13:14:05;28.80;57.80
74822;DHT22;63353;48.702;8.884;2023-06-14T13:16:33;28.00;58.60
74822;DHT22;63353;48.702;8.884;2023-06-14T13:19:04;28.20;61.50
74822;DHT22;63353;48.702;8.884;2023-06-14T13:21:29;27.50;58.80
74822;DHT22;63353;48.702;8.884;2023-06-14T13:24:05;28.70;59.00
74822;DHT22;63353;48.702;8.884;2023-06-14T13:26:30;28.30;59.10
74822;DHT22;63353;48.702;8.884;2023-06-14T13:28:59;28.40;58.80
74822;DHT22;63353;48.702;8.884;2023-06-14T13:31:25;27.50;59.10
74822;DHT22;63353;48.702;8.884;2023-06-14T13:33:50;27.70;59.40
74822;DHT22;63353;48.702;8.884;2023-06-14T13:36:16;27.60;60.30
74822;DHT22;63353;48.702;8.884;2023-06-14T13:38:42;28.50;59.80
74822;DHT22;63353;48.702;8.884;2023-06-14T13:41:07;28.20;57.10
74822;DHT22;63353;48.702;8.884;2023-06-14T13:43:36;28.80;58.00
74822;DHT22;63353;48.702;8.884;2023-06-14T13:46:01;29.60;57.30
74822;DHT22;63353;48.702;8.884;2023-06-14T13:48:27;29.50;57.20
74822;DHT22;63353;48.702;8.884;2023-06-14T13:50:53;30.50;59.30
74822;DHT22;63353;48.702;8.884;2023-06-14T13:53:21;31.00;56.80
74822;DHT22;63353;48.702;8.884;2023-06-14T13:55:47;30.70;53.60
74822;DHT22;63353;48.702;8.884;2023-06-14T13:58:13;30.40;59.70
74822;DHT22;63353;48.702;8.884;2023-06-14T14:00:43;31.10;57.40
74822;DHT22;63353;48.702;8.884;2023-06-14T14:03:12;31.70;54.50
74822;DHT22;63353;48.702;8.884;2023-06-14T14:05:41;32.20;57.80
74822;DHT22;63353;48.702;8.884;2023-06-14T14:08:07;32.60;53.30
74822;DHT22;63353;48.702;8.884;2023-06-14T14:10:32;32.70;52.00
74822;DHT22;63353;48.702;8.884;2023-06-14T14:12:58;32.60;52.20
74822;DHT22;63353;48.702;8.884;2023-06-14T14:15:25;33.30;52.40
74822;DHT22;63353;48.702;8.884;2023-06-14T14:17:50;32.00;91.60
74822;DHT22;63353;48.702;8.884;2023-06-14T14:20:16;32.40;61.80
74822;DHT22;63353;48.702;8.884;2023-06-14T14:22:42;32.80;60.60
74822;DHT22;63353;48.702;8.884;2023-06-14T14:25:09;34.10;56.50
74822;DHT22;63353;48.702;8.884;2023-06-14T14:27:34;34.80;52.60
74822;DHT22;63353;48.702;8.884;2023-06-14T14:30:01;35.30;50.70
74822;DHT22;63353;48.702;8.884;2023-06-14T14:32:26;35.20;49.60
74822;DHT22;63353;48.702;8.884;2023-06-14T14:34:52;35.30;48.30
74822;DHT22;63353;48.702;8.884;2023-06-14T14:37:17;35.60;50.70
74822;DHT22;63353;48.702;8.884;2023-06-14T14:39:44;35.70;50.70
74822;DHT22;63353;48.702;8.884;2023-06-14T14:42:11;36.90;50.10
74822;DHT22;63353;48.702;8.884;2023-06-14T14:44:38;37.20;46.10
74822;DHT22;63353;48.702;8.884;2023-06-14T14:47:04;37.00;46.30
74822;DHT22;63353;48.702;8.884;2023-06-14T14:49:31;37.20;46.60
74822;DHT22;63353;48.702;8.884;2023-06-14T14:51:56;37.30;46.10
74822;DHT22;63353;48.702;8.884;2023-06-14T14:54:22;36.70;44.60
74822;DHT22;63353;48.702;8.884;2023-06-14T14:56:49;36.80;46.30
74822;DHT22;63353;48.702;8.884;2023-06-14T14:59:14;36.80;44.40
74822;DHT22;63353;48.702;8.884;2023-06-14T15:01:40;36.80;45.50
74822;DHT22;63353;48.702;8.884;2023-06-14T15:04:06;37.50;47.40
74822;DHT22;63353;48.702;8.884;2023-06-14T15:06:32;37.50;47.80
74822;DHT22;63353;48.702;8.884;2023-06-14T15:09:01;37.40;47.70
74822;DHT22;63353;48.702;8.884;2023-06-14T15:11:26;37.00;44.60
74822;DHT22;63353;48.702;8.884;2023-06-14T15:13:52;36.30;44.40
74822;DHT22;63353;48.702;8.884;2023-06-14T15:16:18;34.20;47.10
74822;DHT22;63353;48.702;8.884;2023-06-14T15:18:44;33.70;48.20
74822;DHT22;63353;48.702;8.884;2023-06-14T15:21:09;33.30;47.70
74822;DHT22;63353;48.702;8.884;2023-06-14T15:23:35;34.40;46.30
74822;DHT22;63353;48.702;8.884;2023-06-14T15:26:07;34.80;47.70
74822;DHT22;63353;48.702;8.884;2023-06-14T15:28:33;36.40;47.90
74822;DHT22;63353;48.702;8.884;2023-06-14T15:30:59;37.40;47.70
74822;DHT22;63353;48.702;8.884;2023-06-14T15:33:28;38.30;45.60
74822;DHT22;63353;48.702;8.884;2023-06-14T15:36:09;38.80;44.30
74822;DHT22;63353;48.702;8.884;2023-06-14T15:38:42;38.30;45.30
74822;DHT22;63353;48.702;8.884;2023-06-14T15:41:14;39.00;46.10
74822;DHT22;63353;48.702;8.884;2023-06-14T15:43:40;39.30;43.80
74822;DHT22;63353;48.702;8.884;2023-06-14T15:46:08;39.70;44.20
74822;DHT22;63353;48.702;8.884;2023-06-14T15:48:37;40.30;43.30
74822;DHT22;63353;48.702;8.884;2023-06-14T15:51:06;40.10;43.70
74822;DHT22;63353;48.702;8.884;2023-06-14T15:53:31;40.20;43.40
74822;DHT22;63353;48.702;8.884;2023-06-14T15:55:57;40.00;42.60
74822;DHT22;63353;48.702;8.884;2023-06-14T15:58:23;40.30;43.80